Flight Track Log - Related Links

Times and Time Zones

All times are in EDT time to prevent confusion due to time zone crossing. See the ASQ5310 flight status page for this flight to view local times or setup timezone preferences in your user account.

Time Position Orientation Groundspeed Altitude Reporting Facility
EDT Latitude Longitude Course Direction KTS MPH feet Rate Location/Type
Sun 08:32:49 PM 40.7333 -73.8333 53° Northeast 187 215 2,100  Level New York TRACON
Sun 08:33:49 PM 40.7500 -73.7667 72° East 232 267 4,800 2,424 Climbing New York TRACON
Sun 08:36:07 PM 40.8839 -73.7583 North 286 329 10,100 2,040 Climbing New York Center
Sun 08:37:09 PM 40.9331 -73.6583 57° Northeast 330 380 11,600 1,548 Climbing New York Center
Sun 08:38:00 PM 40.7873 -73.8553 53° Northeast  Level FlightAware Approximate
Sun 08:38:11 PM 41.0069 -73.5569 46° Northeast 366 421 13,300  Level New York Center
Sun 08:39:13 PM 41.0850 -73.4683 41° Northeast 373 429 15,300 1,951 Climbing New York Center
Sun 08:40:14 PM 41.1739 -73.3700 40° Northeast 386 444 17,300 1,654 Climbing New York Center
Sun 08:41:20 PM 41.2586 -73.2772 39° Northeast 394 453 18,800 1,524 Climbing Boston Center
Sun 08:42:20 PM 41.3256 -73.1528 54° Northeast 414 476 20,500 1,574 Climbing Boston Center
Sun 08:43:22 PM 41.3944 -73.0236 55° Northeast 419 482 22,000 1,268 Climbing Boston Center
Sun 08:44:23 PM 41.4639 -72.8900 55° Northeast 434 499 23,100 1,230 Climbing Boston Center
Sun 08:45:24 PM 41.5419 -72.7411 55° Northeast 448 516 24,500 1,339 Climbing Boston Center
Sun 08:46:24 PM 41.6133 -72.6028 55° Northeast 451 519 25,800 1,190 Climbing Boston Center
Sun 08:47:25 PM 41.6803 -72.4575 58° Northeast 455 524 26,900 1,033 Climbing Boston Center
Sun 08:48:26 PM 41.7450 -72.3039 61° Northeast 471 542 27,900 984 Climbing Boston Center
Sun 08:49:27 PM 41.8092 -72.1508 61° Northeast 472 543 28,900 793 Climbing Boston Center
Sun 08:50:27 PM 41.8747 -71.9942 61° Northeast 482 555 29,500 545 Climbing Boston Center
Sun 08:51:28 PM 41.9425 -71.8331 60° Northeast 498 573 30,000 537 Climbing Boston Center
Sun 08:52:30 PM 42.0111 -71.6667 61° Northeast 507 583 30,600 585 Climbing Boston Center
Sun 08:53:31 PM 42.0808 -71.4981 61° Northeast 513 590 31,200 590 Climbing Boston Center
Sun 08:54:32 PM 42.1508 -71.3281 61° Northeast 517 595 31,800 700 Climbing Boston Center
Sun 08:55:31 PM 42.2311 -71.1306 61° Northeast 521 600 32,600 590 Climbing Boston Center
Sun 08:56:34 PM 42.3014 -70.9594 61° Northeast 521 600 33,000 198 Climbing Boston Center
Sun 08:57:32 PM 42.3731 -70.7800 62° Northeast 521 600 33,000  Level Boston Center
Sun 08:58:35 PM 42.4436 -70.6072 61° Northeast 522 601 33,000  Level Boston Center
Sun 08:59:33 PM 42.5111 -70.4339 62° Northeast 523 602 33,000  Level Boston Center
Sun 09:00:37 PM 42.5794 -70.2592 62° Northeast 523 602 33,000  Level Boston Center
Sun 09:01:38 PM 42.6489 -70.0850 61° Northeast 523 602 33,000  Level Boston Center
Sun 09:02:38 PM 42.7167 -69.9111 62° Northeast 523 602 33,000  Level Boston Center
Sun 09:03:38 PM 42.7844 -69.7383 62° Northeast 523 602 33,000  Level Boston Center
Sun 09:04:52 PM 42.8500 -69.5167 68° East 520 598 33,000  Level Moncton Center
Sun 09:05:52 PM 42.9167 -69.3500 61° Northeast 520 598 33,000  Level Moncton Center
Sun 09:06:52 PM 42.9833 -69.2000 59° Northeast 520 598 33,000  Level Moncton Center
Sun 09:07:42 PM 43.0486 -69.0444 60° Northeast 513 590 33,000  Level Boston Center
Sun 09:08:43 PM 43.1225 -68.8400 64° Northeast 514 592 33,000  Level Boston Center
Sun 09:09:41 PM 43.1861 -68.6647 63° Northeast 514 592 33,000  Level Boston Center
Sun 09:10:43 PM 43.2397 -68.5144 64° Northeast 514 592 33,000  Level Boston Center
Sun 09:11:44 PM 43.3025 -68.3392 64° Northeast 514 592 33,000  Level Boston Center
Sun 09:12:47 PM 43.3772 -68.1286 64° Northeast 514 592 33,000  Level Boston Center
Sun 09:13:47 PM 43.4400 -67.9531 64° Northeast 514 592 33,000  Level Boston Center
Sun 09:14:48 PM 43.5019 -67.7761 64° Northeast 514 592 33,000 -50 Level Boston Center
Sun 09:15:48 PM 43.5628 -67.6022 64° Northeast 512 589 32,900  Descending Boston Center
Sun 09:16:48 PM 43.6225 -67.4278 65° Northeast 511 588 33,000 50 Climbing Boston Center
Sun 09:17:49 PM 43.6831 -67.2536 64° Northeast 511 588 33,000  Level Boston Center
Sun 09:18:52 PM 43.7333 -67.0500 71° East 510 587 33,000  Level Moncton Center
Sun 09:19:52 PM 43.7833 -66.8667 69° East 510 587 33,000  Level Moncton Center
Sun 09:20:52 PM 43.8667 -66.7000 55° Northeast 510 587 33,000  Level Moncton Center
Sun 09:21:52 PM 43.9167 -66.5333 67° East 510 587 33,000  Level Moncton Center
Sun 09:22:52 PM 43.9667 -66.3167 72° East 510 587 33,000  Level Moncton Center
Sun 09:23:52 PM 44.0333 -66.1667 58° Northeast 510 587 33,000  Level Moncton Center
Sun 09:24:52 PM 44.1000 -65.9833 63° Northeast 510 587 33,000  Level Moncton Center
Sun 09:25:52 PM 44.1500 -65.8000 69° East 510 587 33,000  Level Moncton Center
Sun 09:26:52 PM 44.2000 -65.6333 67° East 510 587 33,000 -100 Level Moncton Center
Sun 09:27:52 PM 44.2667 -65.4500 63° Northeast 510 587 32,800 -900 Descending Moncton Center
Sun 09:28:52 PM 44.3167 -65.2667 69° East 510 587 31,200 -1,850 Descending Moncton Center
Sun 09:29:52 PM 44.3833 -65.0833 63° Northeast 500 575 29,100 -2,050 Descending Moncton Center
Sun 09:30:52 PM 44.4333 -64.9167 67° East 490 564 27,100 -2,450 Descending Moncton Center
Sun 09:31:52 PM 44.4833 -64.7500 67° East 470 541 24,200 -2,850 Descending Moncton Center
Sun 09:32:52 PM 44.5333 -64.5833 67° East 470 541 21,400 -3,000 Descending Moncton Center
Sun 09:33:52 PM 44.5833 -64.4000 69° East 450 518 18,200 -3,000 Descending Moncton Center
Sun 09:34:52 PM 44.6333 -64.2500 65° Northeast 430 495 15,400 -2,800 Descending Moncton Center
Sun 09:35:52 PM 44.6667 -64.1167 71° East 410 472 12,600 -2,500 Descending Moncton Center
Sun 09:36:52 PM 44.7167 -63.9667 65° Northeast 370 426 10,400 -1,750 Descending Moncton Center
Sun 09:37:52 PM 44.7333 -63.8500 79° East 310 357 9,100 -1,750 Descending Moncton Center
Sun 09:38:52 PM 44.7667 -63.7333 68° East 290 334 6,900 -2,100 Descending Moncton Center
Sun 09:39:52 PM 44.7833 -63.6500 74° East 270 311 4,900 -2,000 Descending Moncton Center
Sun 09:40:52 PM 44.8000 -63.5500 77° East 250 288 2,900 -1,400 Descending Moncton Center
Sun 09:41:52 PM 44.7667 -63.4500 115° Southeast 220 253 2,100 -450 Descending Moncton Center
Sun 09:42:52 PM 44.7833 -63.4000 65° Northeast 170 196 2,000 -50 Descending Moncton Center
Sun 09:43:52 PM 44.8167 -63.4000 360° North 130 150 2,000 -250 Level Moncton Center
Sun 09:44:52 PM 44.8500 -63.4333 325° Northwest 120 138 1,500 -650 Descending Moncton Center
Sun 09:45:52 PM 44.8667 -63.4833 295° West 120 138 700 -500 Descending Moncton Center
Sun 09:46:52 PM 44.8833 -63.5000 325° Northwest 120 138 500 -200 Descending Moncton Center

Login

Don't have an account? Register now (free) for customized features, flight alerts, and more!